createdAt,value
2023-11-28T00:01:48.976Z,32.46
2023-11-28T00:04:15.809Z,32.54
2023-11-28T00:06:42.474Z,32.59
2023-11-28T00:09:09.137Z,32.49
2023-11-28T00:11:35.716Z,32.37
2023-11-28T00:14:02.411Z,32.42
2023-11-28T00:16:29.187Z,32.21
2023-11-28T00:18:57.162Z,32.40
2023-11-28T00:21:23.793Z,32.53
2023-11-28T00:23:50.410Z,32.79
2023-11-28T00:26:16.959Z,32.59
2023-11-28T00:28:55.330Z,32.38
2023-11-28T00:31:22.137Z,32.47
2023-11-28T00:33:48.936Z,32.64
2023-11-28T00:36:18.372Z,32.62
2023-11-28T00:38:48.060Z,32.73
2023-11-28T00:41:14.990Z,32.56
2023-11-28T00:43:41.645Z,32.73
2023-11-28T00:46:09.241Z,32.58
2023-11-28T00:48:35.942Z,32.64
2023-11-28T00:51:03.684Z,32.73
2023-11-28T00:53:30.280Z,32.63
2023-11-28T00:55:56.876Z,32.67
2023-11-28T00:58:23.521Z,32.76
2023-11-28T01:00:50.282Z,32.47
2023-11-28T01:03:17.089Z,32.74
2023-11-28T01:05:43.830Z,32.70
2023-11-28T01:08:10.741Z,33.00
2023-11-28T01:10:38.222Z,32.73
2023-11-28T01:13:04.889Z,32.82
2023-11-28T01:15:31.496Z,32.97
2023-11-28T01:17:58.196Z,32.89
2023-11-28T01:20:25.635Z,32.89
2023-11-28T01:22:52.281Z,32.94
2023-11-28T01:25:18.867Z,32.99
2023-11-28T01:27:45.536Z,32.77
2023-11-28T01:30:13.675Z,32.75
2023-11-28T01:32:40.352Z,33.00
2023-11-28T01:35:07.248Z,33.00
2023-11-28T01:37:34.146Z,32.87
2023-11-28T01:40:00.817Z,33.16
2023-11-28T01:42:27.401Z,33.29
2023-11-28T01:44:53.994Z,33.14
2023-11-28T01:47:21.560Z,33.20
2023-11-28T01:49:48.493Z,33.39
2023-11-28T01:52:15.101Z,33.41
2023-11-28T01:54:42.668Z,33.34
2023-11-28T01:57:10.153Z,33.48
2023-11-28T01:59:36.996Z,33.45
2023-11-28T02:02:05.796Z,33.35
2023-11-28T02:04:34.378Z,33.65
2023-11-28T02:07:01.056Z,33.28
2023-11-28T02:09:27.755Z,33.57
2023-11-28T02:11:55.466Z,33.47
2023-11-28T02:14:23.612Z,33.35
2023-11-28T02:16:50.381Z,33.59
2023-11-28T02:19:17.094Z,33.48
2023-11-28T02:21:43.886Z,33.60
2023-11-28T02:24:12.232Z,33.27
2023-11-28T02:26:39.711Z,33.42
2023-11-28T02:29:06.889Z,33.47
2023-11-28T02:31:33.542Z,33.65
2023-11-28T02:34:00.277Z,33.52
2023-11-28T02:36:27.620Z,33.64
2023-11-28T02:38:55.071Z,33.45
2023-11-28T02:41:21.681Z,33.47
2023-11-28T02:43:48.291Z,34.56
2023-11-28T02:46:14.899Z,33.18
2023-11-28T02:48:41.903Z,33.63
2023-11-28T02:51:12.572Z,33.39
2023-11-28T02:53:39.876Z,33.90
2023-11-28T02:56:07.190Z,34.02
2023-11-28T02:58:34.037Z,33.78
2023-11-28T03:01:00.666Z,33.92
2023-11-28T03:03:27.261Z,34.05
2023-11-28T03:05:56.917Z,33.99
2023-11-28T03:08:23.928Z,33.65
2023-11-28T03:10:51.573Z,33.84
2023-11-28T03:13:18.235Z,33.54
2023-11-28T03:15:44.815Z,33.86
2023-11-28T03:18:11.499Z,33.88
2023-11-28T03:20:38.157Z,33.66
2023-11-28T03:23:04.857Z,33.93
2023-11-28T03:25:33.743Z,33.62
2023-11-28T03:28:00.348Z,33.63
2023-11-28T03:30:27.510Z,33.77
2023-11-28T03:32:54.263Z,33.47
2023-11-28T03:35:20.987Z,33.66
2023-11-28T03:37:48.224Z,33.97
2023-11-28T03:40:15.268Z,34.04
2023-11-28T03:42:41.992Z,33.96
2023-11-28T03:45:09.158Z,33.75
2023-11-28T03:47:35.802Z,34.14
2023-11-28T03:50:02.505Z,33.75
2023-11-28T03:52:29.133Z,33.97
2023-11-28T03:54:55.831Z,34.08
2023-11-28T03:57:22.465Z,34.13
2023-11-28T03:59:49.101Z,34.22
2023-11-28T04:02:15.956Z,34.10
2023-11-28T04:04:43.340Z,34.05
2023-11-28T04:07:09.990Z,34.20
2023-11-28T04:09:37.279Z,33.93
2023-11-28T04:12:04.373Z,34.02
2023-11-28T04:14:31.264Z,34.07
2023-11-28T04:16:57.900Z,34.28
2023-11-28T04:19:24.649Z,34.12
2023-11-28T04:21:52.044Z,34.05
2023-11-28T04:24:18.722Z,34.19
2023-11-28T04:26:45.538Z,34.20
2023-11-28T04:29:13.506Z,34.29
2023-11-28T04:31:40.973Z,34.04
2023-11-28T04:34:07.729Z,34.07
2023-11-28T04:36:34.385Z,33.90
2023-11-28T04:39:01.457Z,34.03
2023-11-28T04:41:33.459Z,34.17
2023-11-28T04:44:01.052Z,34.17
2023-11-28T04:46:27.744Z,34.05
2023-11-28T04:48:54.404Z,34.00
2023-11-28T04:51:21.009Z,34.33
2023-11-28T04:53:47.584Z,34.27
2023-11-28T04:56:14.196Z,34.10
2023-11-28T04:58:43.668Z,34.24
2023-11-28T05:01:10.289Z,33.79
2023-11-28T05:03:37.017Z,34.15
2023-11-28T05:06:03.712Z,33.83
2023-11-28T05:08:30.646Z,34.02
2023-11-28T05:10:58.757Z,33.94
2023-11-28T05:13:25.715Z,34.10
2023-11-28T05:15:52.337Z,34.09
2023-11-28T05:18:19.423Z,33.98
2023-11-28T05:20:46.328Z,34.22
2023-11-28T05:23:12.949Z,33.86
2023-11-28T05:25:40.374Z,34.04
2023-11-28T05:28:07.143Z,33.80
2023-11-28T05:30:33.761Z,34.22
2023-11-28T05:33:00.637Z,33.93
2023-11-28T05:35:27.444Z,32.26
2023-11-28T05:37:54.121Z,31.81
2023-11-28T05:40:22.718Z,32.89
2023-11-28T05:42:49.497Z,32.62
2023-11-28T05:45:16.223Z,32.69
2023-11-28T05:47:43.065Z,32.72
2023-11-28T05:50:11.688Z,33.08
2023-11-28T05:52:38.671Z,32.73
2023-11-28T05:55:06.323Z,33.26
2023-11-28T05:57:35.092Z,32.78
2023-11-28T06:00:01.735Z,32.79
2023-11-28T06:02:28.634Z,32.65
2023-11-28T06:04:55.276Z,33.01
2023-11-28T06:07:21.979Z,32.92
2023-11-28T06:09:48.597Z,32.88
2023-11-28T06:12:17.218Z,32.59
2023-11-28T06:14:43.912Z,32.80
2023-11-28T06:17:11.039Z,32.82
2023-11-28T06:19:37.867Z,32.82
2023-11-28T06:22:04.956Z,32.80
2023-11-28T06:24:31.581Z,32.78
2023-11-28T06:26:58.144Z,32.83
2023-11-28T06:29:24.721Z,32.83
2023-11-28T06:31:51.397Z,33.01
2023-11-28T06:34:18.104Z,33.20
2023-11-28T06:36:44.765Z,33.79
2023-11-28T06:39:11.332Z,33.22
2023-11-28T06:41:38.281Z,32.97
2023-11-28T06:44:05.445Z,33.19
2023-11-28T06:46:32.516Z,32.87
2023-11-28T06:48:59.281Z,32.82
2023-11-28T06:51:26.678Z,32.99
2023-11-28T06:53:53.315Z,33.05
2023-11-28T06:56:19.911Z,32.98
2023-11-28T06:58:46.676Z,32.92
2023-11-28T07:01:13.389Z,32.88
2023-11-28T07:03:40.073Z,33.17
2023-11-28T07:06:07.155Z,32.88
2023-11-28T07:08:34.927Z,33.17
2023-11-28T07:11:01.654Z,32.75
2023-11-28T07:13:28.218Z,32.92
2023-11-28T07:15:57.636Z,32.83
2023-11-28T07:18:24.344Z,32.99
2023-11-28T07:20:51.141Z,33.11
2023-11-28T07:23:18.549Z,32.94
2023-11-28T07:25:48.533Z,32.75
2023-11-28T07:28:15.152Z,33.00
2023-11-28T07:30:41.945Z,33.28
2023-11-28T07:33:09.030Z,33.13
2023-11-28T07:35:35.728Z,33.24
2023-11-28T07:38:03.993Z,33.23
2023-11-28T07:40:31.843Z,33.33
2023-11-28T07:42:58.703Z,33.51
2023-11-28T07:45:25.389Z,33.35
2023-11-28T07:47:52.646Z,33.21
2023-11-28T07:50:19.918Z,33.29
2023-11-28T07:52:46.588Z,33.43
2023-11-28T07:55:13.222Z,33.20
2023-11-28T07:57:39.844Z,33.56
2023-11-28T08:00:09.414Z,33.38
2023-11-28T08:02:42.424Z,33.42
2023-11-28T08:05:09.477Z,33.47
2023-11-28T08:07:36.570Z,33.37
2023-11-28T08:10:04.098Z,33.97
2023-11-28T08:12:33.878Z,33.44
2023-11-28T08:15:00.512Z,33.46
2023-11-28T08:17:27.337Z,33.87
2023-11-28T08:19:54.037Z,33.58
2023-11-28T08:22:20.893Z,33.27
2023-11-28T08:24:47.560Z,33.28
2023-11-28T08:27:16.978Z,33.46
2023-11-28T08:29:43.643Z,33.35
2023-11-28T08:32:10.645Z,33.44
2023-11-28T08:34:37.537Z,33.44
2023-11-28T08:37:04.227Z,33.18
2023-11-28T08:39:30.916Z,33.25
2023-11-28T08:41:58.417Z,33.28
2023-11-28T08:44:25.173Z,33.56
2023-11-28T08:46:52.232Z,33.76
2023-11-28T08:49:19.673Z,33.54
2023-11-28T08:51:46.344Z,33.61
2023-11-28T08:54:12.981Z,33.50
2023-11-28T08:56:39.654Z,33.15
2023-11-28T08:59:06.337Z,33.87
2023-11-28T09:01:35.806Z,33.40
2023-11-28T09:04:02.649Z,33.80
2023-11-28T09:06:29.312Z,33.87
2023-11-28T09:08:57.208Z,33.29
2023-11-28T09:11:23.929Z,33.41
2023-11-28T09:13:50.673Z,33.55
2023-11-28T09:16:17.941Z,33.61
2023-11-28T09:18:46.131Z,33.37
2023-11-28T09:21:13.652Z,33.47
2023-11-28T09:23:41.298Z,33.66
2023-11-28T09:26:08.176Z,33.81
2023-11-28T09:28:35.592Z,33.59
2023-11-28T09:31:02.312Z,33.62
2023-11-28T09:33:32.372Z,33.92
2023-11-28T09:35:59.101Z,33.39
2023-11-28T09:38:25.979Z,33.18
2023-11-28T09:40:52.919Z,33.31
2023-11-28T09:43:22.153Z,34.12
2023-11-28T09:45:48.834Z,34.10
2023-11-28T09:48:16.658Z,33.99
2023-11-28T09:50:45.183Z,34.17
2023-11-28T09:53:11.968Z,34.08
2023-11-28T09:55:38.827Z,33.67
2023-11-28T09:58:06.607Z,33.74
2023-11-28T10:00:35.108Z,33.38
2023-11-28T10:03:04.224Z,33.61
2023-11-28T10:05:31.321Z,33.28
2023-11-28T10:07:58.600Z,33.50
2023-11-28T10:10:25.423Z,33.46
2023-11-28T10:12:53.067Z,33.71
2023-11-28T10:15:21.986Z,33.81
2023-11-28T10:17:50.070Z,30.54
2023-11-28T10:20:17.088Z,28.52
2023-11-28T10:22:50.064Z,29.50
2023-11-28T10:25:16.772Z,29.73
2023-11-28T10:27:43.798Z,29.51
2023-11-28T10:30:14.850Z,29.95
2023-11-28T10:32:41.495Z,30.18
2023-11-28T10:35:08.470Z,30.24
2023-11-28T10:37:38.269Z,30.77
2023-11-28T10:40:06.252Z,30.85
2023-11-28T10:42:32.868Z,30.95
2023-11-28T10:45:00.008Z,30.74
2023-11-28T10:47:32.151Z,30.77
2023-11-28T10:49:59.136Z,30.09
2023-11-28T10:52:27.098Z,30.19
2023-11-28T10:54:57.175Z,30.34
2023-11-28T10:57:31.311Z,30.48
2023-11-28T11:00:02.048Z,30.61
2023-11-28T11:02:29.750Z,30.84
2023-11-28T11:04:56.821Z,30.88
2023-11-28T11:07:23.782Z,31.15
2023-11-28T11:09:50.460Z,31.36
2023-11-28T11:12:17.164Z,31.45
2023-11-28T11:14:53.797Z,31.30
2023-11-28T11:17:27.053Z,31.44
2023-11-28T11:19:54.750Z,31.88
2023-11-28T11:22:22.346Z,31.54
2023-11-28T11:24:48.974Z,32.07
2023-11-28T11:27:18.433Z,31.73
2023-11-28T11:29:45.150Z,31.86
2023-11-28T11:32:12.916Z,31.81
2023-11-28T11:34:47.835Z,31.83
2023-11-28T11:37:21.252Z,31.67
2023-11-28T11:39:49.187Z,31.73
2023-11-28T11:42:19.437Z,31.99
2023-11-28T11:44:45.990Z,32.06
2023-11-28T11:47:17.714Z,31.70
2023-11-28T11:49:45.375Z,31.72
2023-11-28T11:52:13.346Z,31.93
2023-11-28T11:54:41.132Z,32.03
2023-11-28T11:57:07.804Z,31.79
2023-11-28T11:59:34.488Z,32.11
2023-11-28T12:02:03.019Z,32.11
2023-11-28T12:04:30.355Z,32.13
2023-11-28T12:07:15.769Z,31.89
2023-11-28T12:09:42.963Z,32.23
2023-11-28T12:12:13.899Z,31.98
2023-11-28T12:14:40.728Z,31.75
2023-11-28T12:17:07.737Z,31.92
2023-11-28T12:19:34.931Z,31.93
2023-11-28T12:22:10.156Z,32.21
2023-11-28T12:24:36.863Z,32.13
2023-11-28T12:27:03.866Z,32.15
2023-11-28T12:29:33.568Z,32.37
2023-11-28T12:32:00.456Z,31.98
2023-11-28T12:34:27.971Z,32.01
2023-11-28T12:36:58.355Z,32.07
2023-11-28T12:39:26.061Z,32.06
2023-11-28T12:41:53.415Z,32.07
2023-11-28T12:44:23.670Z,32.28
2023-11-28T12:46:53.311Z,32.52
2023-11-28T12:49:22.862Z,32.42
2023-11-28T12:51:49.511Z,32.15
2023-11-28T12:54:18.660Z,32.22
2023-11-28T12:56:49.836Z,32.05
2023-11-28T12:59:16.744Z,32.37
2023-11-28T13:01:44.056Z,32.62
2023-11-28T13:04:11.262Z,32.50
2023-11-28T13:06:53.425Z,32.34
2023-11-28T13:09:29.512Z,32.35
2023-11-28T13:11:56.250Z,32.40
2023-11-28T13:14:23.079Z,32.14
2023-11-28T13:16:56.420Z,31.84
2023-11-28T13:19:31.104Z,32.19
2023-11-28T13:21:58.131Z,32.14
2023-11-28T13:24:25.549Z,32.42
2023-11-28T13:26:52.233Z,32.33
2023-11-28T13:29:22.633Z,32.58
2023-11-28T13:31:49.721Z,32.13
2023-11-28T13:34:16.435Z,32.04
2023-11-28T13:36:43.104Z,32.14
2023-11-28T13:39:09.812Z,32.23
2023-11-28T13:41:36.522Z,32.25
2023-11-28T13:44:03.288Z,32.52
2023-11-28T13:46:30.913Z,32.34
2023-11-28T13:48:57.843Z,32.34
2023-11-28T13:51:24.676Z,32.15
2023-11-28T13:53:51.732Z,32.40
2023-11-28T13:56:18.607Z,32.41
2023-11-28T13:58:45.577Z,32.45
2023-11-28T14:01:12.839Z,32.40
2023-11-28T14:03:42.643Z,32.41
2023-11-28T14:06:09.818Z,32.25
2023-11-28T14:08:36.633Z,32.50
2023-11-28T14:11:03.451Z,32.25
2023-11-28T14:13:30.141Z,32.38
2023-11-28T14:15:56.794Z,32.44
2023-11-28T14:18:24.831Z,32.48
2023-11-28T14:20:53.710Z,32.32
2023-11-28T14:23:20.593Z,32.45
2023-11-28T14:25:47.422Z,32.34
2023-11-28T14:28:14.211Z,32.50
2023-11-28T14:30:40.992Z,32.52
2023-11-28T14:33:09.326Z,32.45
2023-11-28T14:35:36.280Z,32.27
2023-11-28T14:38:06.077Z,32.70
2023-11-28T14:40:32.937Z,32.41
2023-11-28T14:42:59.599Z,32.65
2023-11-28T14:45:26.281Z,32.61
2023-11-28T14:47:55.134Z,32.71
2023-11-28T14:50:22.691Z,32.81
2023-11-28T14:52:49.486Z,32.73
2023-11-28T14:55:16.122Z,32.60
2023-11-28T14:57:42.876Z,32.59
2023-11-28T15:00:12.503Z,32.79
2023-11-28T15:02:39.725Z,32.70
2023-11-28T15:05:11.037Z,32.48
2023-11-28T15:07:43.424Z,32.47
2023-11-28T15:10:10.347Z,32.34
2023-11-28T15:12:38.398Z,32.41
2023-11-28T15:15:06.161Z,32.68
2023-11-28T15:17:32.877Z,32.59
2023-11-28T15:19:59.797Z,32.59
2023-11-28T15:22:27.742Z,27.81
2023-11-28T15:24:56.091Z,26.45
2023-11-28T15:27:24.006Z,25.54
2023-11-28T15:29:52.168Z,25.66
2023-11-28T15:32:20.490Z,26.47
2023-11-28T15:34:49.101Z,27.11
2023-11-28T15:37:16.004Z,27.96
2023-11-28T15:39:42.697Z,27.71
2023-11-28T15:42:10.573Z,28.38
2023-11-28T15:44:37.325Z,29.03
2023-11-28T15:47:04.491Z,28.84
2023-11-28T15:49:40.021Z,29.10
2023-11-28T15:52:14.925Z,30.57
2023-11-28T15:54:41.946Z,30.54
2023-11-28T15:57:11.996Z,30.06
2023-11-28T15:59:39.519Z,30.11
2023-11-28T16:02:08.882Z,30.33
2023-11-28T16:04:35.889Z,30.20
2023-11-28T16:07:02.629Z,30.34
2023-11-28T16:09:29.301Z,30.25
2023-11-28T16:11:56.125Z,30.71
2023-11-28T16:14:22.894Z,30.61
2023-11-28T16:16:49.924Z,30.96
2023-11-28T16:19:18.184Z,31.53
2023-11-28T16:21:45.843Z,31.72
2023-11-28T16:24:12.663Z,31.00
2023-11-28T16:26:40.107Z,31.76
2023-11-28T16:29:06.975Z,33.67
2023-11-28T16:31:33.728Z,33.15
2023-11-28T16:34:00.580Z,32.94
2023-11-28T16:36:27.377Z,33.14
2023-11-28T16:38:54.072Z,35.50
2023-11-28T16:41:21.144Z,34.84
2023-11-28T16:43:47.952Z,34.06
2023-11-28T16:46:15.559Z,33.54
2023-11-28T16:48:42.310Z,33.63
2023-11-28T16:51:11.757Z,34.21
2023-11-28T16:53:38.658Z,34.79
2023-11-28T16:56:06.820Z,35.22
2023-11-28T16:58:36.694Z,34.48
2023-11-28T17:01:04.357Z,35.15
2023-11-28T17:03:31.292Z,35.65
2023-11-28T17:05:58.051Z,34.77
2023-11-28T17:08:24.781Z,36.08
2023-11-28T17:10:51.511Z,35.35
2023-11-28T17:13:18.213Z,34.46
2023-11-28T17:15:44.873Z,33.83
2023-11-28T17:18:11.707Z,30.93
2023-11-28T17:20:38.825Z,27.38
2023-11-28T17:23:05.602Z,26.77
2023-11-28T17:25:32.308Z,27.59
2023-11-28T17:27:59.011Z,28.22
2023-11-28T17:30:25.661Z,28.84
2023-11-28T17:32:52.375Z,29.01
2023-11-28T17:35:19.402Z,29.13
2023-11-28T17:37:46.184Z,29.38
2023-11-28T17:40:13.002Z,30.49
2023-11-28T17:42:42.494Z,31.17
2023-11-28T17:45:09.573Z,33.56
2023-11-28T17:47:37.346Z,31.62
2023-11-28T17:50:04.860Z,29.96
2023-11-28T17:52:32.737Z,30.46
2023-11-28T17:54:59.936Z,29.35
2023-11-28T17:57:26.851Z,28.70
2023-11-28T17:59:53.918Z,28.95
2023-11-28T18:02:21.722Z,29.03
2023-11-28T18:04:49.319Z,29.32
2023-11-28T18:07:19.009Z,29.53
2023-11-28T18:09:52.588Z,29.54
2023-11-28T18:12:21.288Z,29.62
2023-11-28T18:14:48.633Z,29.91
2023-11-28T18:17:15.463Z,29.77
2023-11-28T18:19:42.688Z,29.76
2023-11-28T18:22:09.408Z,29.77
2023-11-28T18:24:36.068Z,29.78
2023-11-28T18:27:02.749Z,29.81
2023-11-28T18:29:29.952Z,30.08
2023-11-28T18:31:57.500Z,30.08
2023-11-28T18:34:24.498Z,30.18
2023-11-28T18:36:51.321Z,30.35
2023-11-28T18:39:18.892Z,30.41
2023-11-28T18:41:45.901Z,30.60
2023-11-28T18:44:15.553Z,30.67
2023-11-28T18:46:43.733Z,30.78
2023-11-28T18:49:10.557Z,30.84
2023-11-28T18:51:38.341Z,30.83
2023-11-28T18:54:05.107Z,30.73
2023-11-28T18:56:33.626Z,30.80
2023-11-28T18:59:11.630Z,30.85
2023-11-28T19:01:58.710Z,30.55
2023-11-28T19:04:27.939Z,30.75
2023-11-28T19:06:55.538Z,30.89
2023-11-28T19:09:23.946Z,30.96
2023-11-28T19:11:52.184Z,30.99
2023-11-28T19:14:19.634Z,30.79
2023-11-28T19:16:46.484Z,30.98
2023-11-28T19:19:13.302Z,30.81
2023-11-28T19:21:45.165Z,30.79
2023-11-28T19:24:13.488Z,30.95
2023-11-28T19:26:41.762Z,30.96
2023-11-28T19:29:08.630Z,30.98
2023-11-28T19:31:36.662Z,30.84
2023-11-28T19:34:04.130Z,30.98
2023-11-28T19:36:31.771Z,31.08
2023-11-28T19:39:00.718Z,31.11
2023-11-28T19:41:27.861Z,31.12
2023-11-28T19:43:54.922Z,31.01
2023-11-28T19:46:21.916Z,31.22
2023-11-28T19:48:48.744Z,31.15
2023-11-28T19:51:15.982Z,31.40
2023-11-28T19:53:44.428Z,31.38
2023-11-28T19:56:11.575Z,31.20
2023-11-28T19:58:39.906Z,31.21
2023-11-28T20:01:08.704Z,31.27
2023-11-28T20:03:38.365Z,31.19
2023-11-28T20:06:06.913Z,31.00
2023-11-28T20:11:25.226Z,31.42
2023-11-28T20:13:55.847Z,31.14
2023-11-28T20:16:22.667Z,31.31
2023-11-28T20:18:49.667Z,31.16
2023-11-28T20:21:16.715Z,31.17
2023-11-28T20:23:43.575Z,31.29
2023-11-28T20:26:10.496Z,31.07
2023-11-28T20:28:37.443Z,31.30
2023-11-28T20:31:04.400Z,31.48
2023-11-28T20:33:31.407Z,31.13
2023-11-28T20:35:58.254Z,31.74
2023-11-28T20:38:26.039Z,31.17
2023-11-28T20:40:52.890Z,31.38
2023-11-28T20:43:19.656Z,31.36
2023-11-28T20:45:46.625Z,31.34
2023-11-28T20:48:13.584Z,31.20
2023-11-28T20:50:40.644Z,31.02
2023-11-28T20:53:07.473Z,31.29
2023-11-28T20:55:37.194Z,31.15
2023-11-28T20:58:04.063Z,31.01
2023-11-28T21:00:30.853Z,31.19
2023-11-28T21:02:57.710Z,31.23
2023-11-28T21:05:39.423Z,31.21
2023-11-28T21:08:06.585Z,31.48
2023-11-28T21:10:36.829Z,31.24
2023-11-28T21:13:03.725Z,31.30
2023-11-28T21:15:30.519Z,32.43
2023-11-28T21:17:59.812Z,31.75
2023-11-28T21:20:26.778Z,31.52
2023-11-28T21:22:53.484Z,31.65
2023-11-28T21:25:20.237Z,31.47
2023-11-28T21:27:46.975Z,31.55
2023-11-28T21:30:13.903Z,31.50
2023-11-28T21:32:40.871Z,31.75
2023-11-28T21:35:11.067Z,31.57
2023-11-28T21:37:38.591Z,31.51
2023-11-28T21:40:09.391Z,31.64
2023-11-28T21:42:36.154Z,31.65
2023-11-28T21:45:03.734Z,31.32
2023-11-28T21:47:30.570Z,31.61
2023-11-28T21:50:03.847Z,31.77
2023-11-28T21:52:32.203Z,31.51
2023-11-28T21:54:59.064Z,31.75
2023-11-28T21:57:25.750Z,31.79
2023-11-28T21:59:52.415Z,31.50
2023-11-28T22:02:20.841Z,31.38
2023-11-28T22:04:51.448Z,31.41
2023-11-28T22:07:18.156Z,31.69
2023-11-28T22:09:45.219Z,31.59
2023-11-28T22:12:11.842Z,31.78
2023-11-28T22:14:38.678Z,31.56
2023-11-28T22:17:05.400Z,31.57
2023-11-28T22:19:32.080Z,31.65
2023-11-28T22:21:58.722Z,31.57
2023-11-28T22:24:25.451Z,31.24
2023-11-28T22:26:52.101Z,31.72
2023-11-28T22:29:18.986Z,31.57
2023-11-28T22:31:45.711Z,31.37
2023-11-28T22:34:12.321Z,31.37
2023-11-28T22:36:39.019Z,31.48
2023-11-28T22:39:06.430Z,31.48
2023-11-28T22:41:33.789Z,31.62
2023-11-28T22:44:00.501Z,31.62
2023-11-28T22:46:29.180Z,31.61
2023-11-28T22:48:56.060Z,31.39
2023-11-28T22:51:22.697Z,31.53
2023-11-28T22:53:49.653Z,31.69
2023-11-28T22:56:16.254Z,31.69
2023-11-28T22:58:42.877Z,31.56
2023-11-28T23:01:09.487Z,31.56
2023-11-28T23:03:36.207Z,31.44
2023-11-28T23:06:02.930Z,31.57
2023-11-28T23:08:32.218Z,31.77
2023-11-28T23:10:58.974Z,31.46
2023-11-28T23:13:25.645Z,32.10
2023-11-28T23:15:52.241Z,31.97
2023-11-28T23:18:18.879Z,31.65
2023-11-28T23:20:46.104Z,31.68
2023-11-28T23:23:12.812Z,31.85
2023-11-28T23:25:39.424Z,31.65
2023-11-28T23:28:06.089Z,31.95
2023-11-28T23:30:33.351Z,31.97
2023-11-28T23:33:00.029Z,31.64
2023-11-28T23:35:26.798Z,31.85
2023-11-28T23:37:53.434Z,31.67
2023-11-28T23:40:20.084Z,31.75
2023-11-28T23:42:50.453Z,31.66
2023-11-28T23:45:19.483Z,31.76
2023-11-28T23:47:49.230Z,31.87
2023-11-28T23:50:16.112Z,32.12
2023-11-28T23:52:43.429Z,31.98
2023-11-28T23:55:10.494Z,32.06
2023-11-28T23:57:37.076Z,32.09
